createdAt,value
2018-07-15T00:04:19.541Z,100326.23
2018-07-15T00:09:23.183Z,100330.92
2018-07-15T00:14:26.913Z,100324.39
2018-07-15T00:19:30.692Z,100324.02
2018-07-15T00:24:34.387Z,100329.66
2018-07-15T00:29:38.098Z,100340.12
2018-07-15T00:34:41.835Z,100342.46
2018-07-15T00:39:45.504Z,100343.31
2018-07-15T00:44:49.227Z,100337.91
2018-07-15T00:49:52.981Z,100338.89
2018-07-15T00:54:56.643Z,100339.61
2018-07-15T01:00:00.574Z,100345.65
2018-07-15T01:05:06.042Z,100336.55
2018-07-15T01:10:09.693Z,100330.91
2018-07-15T01:15:13.426Z,100322.52
2018-07-15T01:20:17.106Z,100325.49
2018-07-15T01:25:20.733Z,100343.80
2018-07-15T01:30:24.397Z,100337.77
2018-07-15T01:35:28.050Z,100328.69
2018-07-15T01:40:31.775Z,100328.91
2018-07-15T01:45:35.539Z,100318.23
2018-07-15T01:50:39.179Z,100310.86
2018-07-15T01:55:42.918Z,100314.17
2018-07-15T02:00:46.610Z,100316.38
2018-07-15T02:05:50.269Z,100315.03
2018-07-15T02:10:53.941Z,100308.50
2018-07-15T02:15:57.761Z,100305.91
2018-07-15T02:21:01.419Z,100305.55
2018-07-15T02:26:05.174Z,100303.05
2018-07-15T02:31:08.845Z,100301.58
2018-07-15T02:36:12.518Z,100296.64
2018-07-15T02:41:16.321Z,100296.39
2018-07-15T02:46:20.090Z,100301.05
2018-07-15T02:51:23.738Z,100304.48
2018-07-15T02:56:27.404Z,100295.72
2018-07-15T03:01:31.049Z,100300.25
2018-07-15T03:06:34.691Z,100297.31
2018-07-15T03:11:38.410Z,100305.52
2018-07-15T03:16:42.142Z,100307.84
2018-07-15T03:21:45.868Z,100298.92
2018-07-15T03:26:49.790Z,100303.83
2018-07-15T03:31:53.477Z,100290.72
2018-07-15T03:36:57.210Z,100287.97
2018-07-15T03:42:01.066Z,100291.63
2018-07-15T03:47:04.748Z,100283.98
2018-07-15T03:52:08.472Z,100281.47
2018-07-15T03:57:12.190Z,100277.64
2018-07-15T04:02:15.848Z,100275.59
2018-07-15T04:07:19.619Z,100272.67
2018-07-15T04:12:23.346Z,100275.73
2018-07-15T04:17:27.102Z,100285.55
2018-07-15T04:22:30.791Z,100286.41
2018-07-15T04:27:34.480Z,100288.34
2018-07-15T04:32:38.211Z,100285.89
2018-07-15T04:37:42.011Z,100290.15
2018-07-15T04:42:45.682Z,100286.10
2018-07-15T04:47:49.923Z,100301.16
2018-07-15T04:52:53.784Z,100300.11
2018-07-15T04:57:57.447Z,100305.14
2018-07-15T05:03:01.150Z,100304.28
2018-07-15T05:08:04.891Z,100312.32
2018-07-15T05:13:08.534Z,100315.33
2018-07-15T05:18:12.169Z,100324.89
2018-07-15T05:23:15.847Z,100324.22
2018-07-15T05:28:19.471Z,100325.08
2018-07-15T05:33:23.231Z,100329.55
2018-07-15T05:38:26.887Z,100338.27
2018-07-15T05:43:30.582Z,100336.70
2018-07-15T05:48:34.289Z,100333.60
2018-07-15T05:53:38.003Z,100329.31
2018-07-15T05:58:41.717Z,100336.21
2018-07-15T06:03:45.458Z,100333.82
2018-07-15T06:08:49.095Z,100344.53
2018-07-15T06:13:52.795Z,100345.48
2018-07-15T06:18:56.452Z,100352.72
2018-07-15T06:24:00.143Z,100341.58
2018-07-15T06:29:03.875Z,100343.82
2018-07-15T06:34:07.585Z,100335.97
2018-07-15T06:39:11.300Z,100340.54
2018-07-15T06:44:15.014Z,100338.60
2018-07-15T06:49:18.778Z,100332.83
2018-07-15T06:54:22.470Z,100337.87
2018-07-15T06:59:26.290Z,100331.45
2018-07-15T07:04:29.918Z,100326.09
2018-07-15T07:09:33.606Z,100323.21
2018-07-15T07:14:37.342Z,100326.27
2018-07-15T07:19:41.153Z,100323.27
2018-07-15T07:24:44.820Z,100327.80
2018-07-15T07:29:48.462Z,100331.91
2018-07-15T07:34:52.147Z,100334.60
2018-07-15T07:39:55.751Z,100335.31
2018-07-15T07:44:59.529Z,100336.09
2018-07-15T07:50:05.718Z,100333.49
2018-07-15T07:55:09.408Z,100327.58
2018-07-15T08:00:13.081Z,100320.73
2018-07-15T08:05:16.834Z,100319.06
2018-07-15T08:10:20.508Z,100316.95
2018-07-15T08:15:24.247Z,100317.62
2018-07-15T08:20:27.843Z,100319.08
2018-07-15T08:25:31.636Z,100322.66
2018-07-15T08:30:46.505Z,100321.03
2018-07-15T08:35:50.170Z,100316.86
2018-07-15T08:40:53.876Z,100316.41
2018-07-15T08:45:57.598Z,100320.55
2018-07-15T08:51:01.530Z,100318.22
2018-07-15T08:56:05.216Z,100316.43
2018-07-15T09:01:08.970Z,100318.13
2018-07-15T09:06:12.710Z,100310.41
2018-07-15T09:11:16.493Z,100306.84
2018-07-15T09:16:20.655Z,100302.78
2018-07-15T09:21:25.081Z,100303.79
2018-07-15T09:26:28.740Z,100306.86
2018-07-15T09:31:32.418Z,100301.33
2018-07-15T09:36:36.146Z,100298.94
2018-07-15T09:41:39.863Z,100299.89
2018-07-15T09:46:43.619Z,100296.95
2018-07-15T09:51:47.301Z,100293.27
2018-07-15T09:56:50.972Z,100289.47
2018-07-15T10:01:54.688Z,100283.32
2018-07-15T10:06:58.378Z,100281.48
2018-07-15T10:12:02.770Z,100275.21
2018-07-15T10:17:06.527Z,100271.92
2018-07-15T10:22:10.514Z,100269.45
2018-07-15T10:27:14.291Z,100265.53
2018-07-15T10:32:17.956Z,100261.22
2018-07-15T10:37:21.990Z,100258.15
2018-07-15T10:42:25.674Z,100245.48
2018-07-15T10:47:29.395Z,100239.09
2018-07-15T10:52:33.125Z,100235.42
2018-07-15T10:57:36.915Z,100226.19
2018-07-15T11:02:40.635Z,100226.06
2018-07-15T11:07:45.021Z,100221.14
2018-07-15T11:12:48.702Z,100216.09
2018-07-15T11:17:52.403Z,100203.20
2018-07-15T11:22:56.049Z,100199.77
2018-07-15T11:28:00.715Z,100199.52
2018-07-15T11:33:04.594Z,100199.38
2018-07-15T11:38:08.323Z,100192.39
2018-07-15T11:43:11.996Z,100182.92
2018-07-15T11:48:15.880Z,100183.28
2018-07-15T11:53:19.539Z,100178.12
2018-07-15T11:58:23.350Z,100176.00
2018-07-15T12:03:27.033Z,100168.50
2018-07-15T12:08:30.707Z,100164.45
2018-07-15T12:13:34.423Z,100161.38
2018-07-15T12:18:38.227Z,100147.36
2018-07-15T12:23:42.236Z,100142.55
2018-07-15T12:28:47.243Z,100146.02
2018-07-15T12:33:50.993Z,100138.87
2018-07-15T12:38:55.502Z,100132.69
2018-07-15T12:43:59.208Z,100130.48
2018-07-15T12:49:02.872Z,100131.13
2018-07-15T12:54:06.778Z,100125.06
2018-07-15T12:59:11.463Z,100122.27
2018-07-15T13:04:15.148Z,100107.02
2018-07-15T13:09:18.880Z,100111.83
2018-07-15T13:14:22.542Z,100103.44
2018-07-15T13:19:26.254Z,100109.33
2018-07-15T13:24:29.980Z,100103.53
2018-07-15T13:29:33.859Z,100098.75
2018-07-15T13:34:37.582Z,100094.20
2018-07-15T13:39:41.287Z,100091.11
2018-07-15T13:44:44.924Z,100088.40
2018-07-15T13:49:48.623Z,100098.26
2018-07-15T13:54:52.322Z,100061.16
2018-07-15T13:59:56.074Z,100079.89
2018-07-15T14:04:59.792Z,100078.44
2018-07-15T14:10:04.885Z,100069.81
2018-07-15T14:15:08.651Z,100069.22
2018-07-15T14:20:12.254Z,100063.98
2018-07-15T14:25:15.983Z,100065.23
2018-07-15T14:30:19.646Z,100059.89
2018-07-15T14:35:23.288Z,100057.11
2018-07-15T14:40:27.148Z,100057.36
2018-07-15T14:45:30.894Z,100061.21
2018-07-15T14:50:34.498Z,100051.13
2018-07-15T14:55:38.820Z,100049.53
2018-07-15T15:00:42.516Z,100043.37
2018-07-15T15:05:46.351Z,100041.77
2018-07-15T15:10:50.010Z,100034.36
2018-07-15T15:15:53.702Z,100034.36
2018-07-15T15:20:57.371Z,100036.56
2018-07-15T15:26:00.990Z,100032.11
2018-07-15T15:31:04.625Z,100029.05
2018-07-15T15:36:08.326Z,100028.41
2018-07-15T15:41:12.111Z,100018.93
2018-07-15T15:46:15.934Z,100022.13
2018-07-15T15:51:19.613Z,100008.45
2018-07-15T15:56:23.291Z,100006.96
2018-07-15T16:01:27.092Z,99995.88
2018-07-15T16:06:30.845Z,99994.02
2018-07-15T16:11:34.529Z,99989.46
2018-07-15T16:16:38.242Z,99983.90
2018-07-15T16:21:41.934Z,99985.25
2018-07-15T16:26:45.615Z,99975.31
2018-07-15T16:31:49.311Z,99984.64
2018-07-15T16:36:52.994Z,99980.08
2018-07-15T16:41:56.716Z,99985.35
2018-07-15T16:47:00.424Z,99985.85
2018-07-15T16:52:04.139Z,99983.00
2018-07-15T16:57:07.871Z,99982.08
2018-07-15T17:02:11.520Z,99982.21
2018-07-15T17:07:15.166Z,99977.30
2018-07-15T17:12:18.861Z,99973.33
2018-07-15T17:17:23.664Z,99969.97
2018-07-15T17:22:27.392Z,99969.20
2018-07-15T17:27:31.196Z,99976.68
2018-07-15T17:32:35.002Z,99981.27
2018-07-15T17:40:31.780Z,99986.87
2018-07-15T17:45:35.689Z,99986.00
2018-07-15T17:50:39.601Z,99990.06
2018-07-15T17:55:43.424Z,99994.06
2018-07-15T18:00:47.863Z,99987.97
2018-07-15T18:05:51.690Z,99991.27
2018-07-15T18:10:55.627Z,99992.05
2018-07-15T18:15:59.424Z,99993.25
2018-07-15T18:21:03.334Z,99995.89
2018-07-15T18:26:07.214Z,99998.69
2018-07-15T18:31:11.079Z,100005.41
2018-07-15T18:36:14.952Z,100010.41
2018-07-15T18:41:18.854Z,100014.66
2018-07-15T18:46:22.738Z,100023.87
2018-07-15T18:51:26.581Z,100025.56
2018-07-15T18:56:30.407Z,100023.53
2018-07-15T19:01:34.512Z,100032.31
2018-07-15T19:06:38.373Z,100028.38
2018-07-15T19:11:42.318Z,100049.00
2018-07-15T19:16:46.124Z,100036.89
2018-07-15T19:21:49.984Z,100052.53
2018-07-15T19:26:53.840Z,100057.69
2018-07-15T19:31:58.474Z,100061.52
2018-07-15T19:37:02.884Z,100060.51
2018-07-15T19:42:07.142Z,100061.31
2018-07-15T19:47:10.937Z,100064.13
2018-07-15T19:52:14.751Z,100065.63
2018-07-15T19:57:19.257Z,100067.74
2018-07-15T20:02:23.057Z,100072.96
2018-07-15T20:07:27.358Z,100073.11
2018-07-15T20:12:31.232Z,100081.00
2018-07-15T20:17:35.346Z,100079.84
2018-07-15T20:22:39.151Z,100081.59
2018-07-15T20:27:43.144Z,100075.67
2018-07-15T20:32:47.039Z,100081.44
2018-07-15T20:37:50.831Z,100078.94
2018-07-15T20:42:54.965Z,100092.81
2018-07-15T20:47:59.026Z,100090.72
2018-07-15T20:53:02.947Z,100097.14
2018-07-15T20:58:06.842Z,100094.02
2018-07-15T21:03:10.680Z,100097.02
2018-07-15T21:08:14.539Z,100103.95
2018-07-15T21:13:18.403Z,100096.73
2018-07-15T21:18:22.156Z,100092.98
2018-07-15T21:23:26.099Z,100092.17
2018-07-15T21:28:29.923Z,100089.91
2018-07-15T21:33:33.766Z,100081.73
2018-07-15T21:38:37.607Z,100085.50
2018-07-15T21:43:41.385Z,100092.02
2018-07-15T21:48:45.224Z,100087.00
2018-07-15T21:53:49.086Z,100090.06
2018-07-15T21:58:52.953Z,100094.89
2018-07-15T22:03:56.773Z,100096.34
2018-07-15T22:11:13.749Z,100091.02
2018-07-15T22:16:17.595Z,100089.41
2018-07-15T22:21:21.468Z,100092.02
2018-07-15T22:26:25.280Z,100089.80
2018-07-15T22:31:29.213Z,100095.98
2018-07-15T22:36:33.010Z,100097.70
2018-07-15T22:41:37.213Z,100100.14
2018-07-15T22:46:41.078Z,100094.67
2018-07-15T22:51:44.987Z,100102.35
2018-07-15T22:56:48.719Z,100102.47
2018-07-15T23:01:52.509Z,100102.00
2018-07-15T23:06:56.367Z,100105.62
2018-07-15T23:12:00.581Z,100108.39
2018-07-15T23:17:05.021Z,100111.04
2018-07-15T23:22:09.255Z,100103.88
2018-07-15T23:27:14.190Z,100103.93
2018-07-15T23:32:18.111Z,100100.25
2018-07-15T23:37:22.065Z,100093.03
2018-07-15T23:42:25.908Z,100089.91
2018-07-15T23:47:29.872Z,100085.84
2018-07-15T23:52:33.695Z,100097.39
2018-07-15T23:57:37.551Z,100092.23
